createdAt,value
2023-02-12T00:04:25.291Z,11.30
2023-02-12T00:09:28.149Z,12.48
2023-02-12T00:14:30.679Z,11.57
2023-02-12T00:19:34.874Z,12.23
2023-02-12T00:24:37.345Z,10.82
2023-02-12T00:29:39.980Z,12.07
2023-02-12T00:34:44.095Z,11.77
2023-02-12T00:39:46.785Z,11.95
2023-02-12T00:44:49.325Z,11.98
2023-02-12T00:49:53.406Z,11.35
2023-02-12T00:54:56.229Z,13.02
2023-02-12T00:59:58.686Z,12.85
2023-02-12T01:05:02.762Z,11.93
2023-02-12T01:10:06.149Z,11.70
2023-02-12T01:15:10.388Z,10.40
2023-02-12T01:20:15.210Z,11.77
2023-02-12T01:25:20.506Z,12.23
2023-02-12T01:30:24.346Z,12.40
2023-02-12T01:35:28.433Z,11.35
2023-02-12T01:40:31.014Z,11.55
2023-02-12T01:45:45.380Z,12.73
2023-02-12T01:50:50.444Z,12.15
2023-02-12T01:55:54.919Z,12.70
2023-02-12T02:00:57.984Z,12.27
2023-02-12T02:06:02.892Z,13.75
2023-02-12T02:11:25.811Z,12.98
2023-02-12T02:16:29.023Z,13.38
2023-02-12T02:21:49.193Z,12.45
2023-02-12T02:27:01.004Z,12.50
2023-02-12T02:32:08.365Z,11.57
2023-02-12T02:37:15.054Z,11.88
2023-02-12T02:42:19.793Z,13.00
2023-02-12T02:47:25.981Z,4.30
2023-02-12T02:52:31.620Z,12.43
2023-02-12T02:57:37.613Z,10.15
2023-02-12T03:02:42.648Z,10.38
2023-02-12T03:07:47.628Z,11.13
2023-02-12T03:12:52.347Z,11.63
2023-02-12T03:17:57.231Z,12.88
2023-02-12T03:23:04.398Z,12.57
2023-02-12T03:28:08.761Z,12.27
2023-02-12T03:38:18.432Z,11.90
2023-02-12T03:43:24.622Z,12.63
2023-02-12T03:48:29.649Z,10.20
2023-02-12T03:53:33.629Z,12.38
2023-02-12T03:58:38.053Z,12.13
2023-02-12T04:08:44.628Z,12.57
2023-02-12T04:13:53.540Z,12.73
2023-02-12T04:18:56.817Z,11.15
2023-02-12T04:24:07.092Z,12.48
2023-02-12T04:29:14.814Z,13.00
2023-02-12T04:34:19.796Z,12.75
2023-02-12T04:39:26.154Z,14.27
2023-02-12T04:44:29.856Z,12.07
2023-02-12T04:49:32.803Z,12.63
2023-02-12T04:54:36.935Z,13.57
2023-02-12T04:59:40.010Z,12.27
2023-02-12T05:04:42.554Z,13.02
2023-02-12T05:09:47.086Z,12.98
2023-02-12T05:14:49.609Z,12.32
2023-02-12T05:19:52.509Z,9.73
2023-02-12T05:24:56.290Z,12.32
2023-02-12T05:29:58.787Z,12.65
2023-02-12T05:35:01.359Z,13.38
2023-02-12T05:40:06.215Z,13.30
2023-02-12T05:45:09.134Z,14.43
2023-02-12T05:50:11.995Z,13.23
2023-02-12T05:55:16.036Z,14.13
2023-02-12T06:00:18.863Z,13.52
2023-02-12T06:05:21.442Z,15.30
2023-02-12T06:10:25.649Z,15.23
2023-02-12T06:15:28.180Z,14.82
2023-02-12T06:20:30.880Z,15.77
2023-02-12T06:25:34.804Z,14.18
2023-02-12T06:30:37.588Z,14.90
2023-02-12T06:35:40.113Z,15.68
2023-02-12T06:40:44.115Z,16.80
2023-02-12T06:45:46.604Z,16.60
2023-02-12T06:50:49.015Z,16.40
2023-02-12T06:55:52.878Z,15.88
2023-02-12T07:00:55.543Z,16.90
2023-02-12T07:05:58.239Z,14.38
2023-02-12T07:11:02.167Z,15.07
2023-02-12T07:16:05.705Z,16.23
2023-02-12T07:21:09.479Z,16.40
2023-02-12T07:26:13.917Z,15.15
2023-02-12T07:31:17.722Z,14.38
2023-02-12T07:36:20.705Z,15.32
2023-02-12T07:41:25.494Z,12.55
2023-02-12T07:46:30.545Z,14.35
2023-02-12T07:51:33.821Z,13.27
2023-02-12T07:56:38.990Z,14.98
2023-02-12T08:01:42.054Z,15.50
2023-02-12T08:06:45.302Z,14.10
2023-02-12T08:11:49.123Z,13.70
2023-02-12T08:16:52.261Z,11.88
2023-02-12T08:21:55.604Z,13.07
2023-02-12T08:26:59.601Z,13.87
2023-02-12T08:32:03.313Z,11.07
2023-02-12T08:37:06.444Z,12.55
2023-02-12T08:42:10.681Z,12.45
2023-02-12T08:52:15.595Z,11.30
2023-02-12T08:57:19.655Z,13.57
2023-02-12T09:02:22.255Z,11.98
2023-02-12T09:07:24.907Z,12.45
2023-02-12T09:12:28.774Z,13.23
2023-02-12T09:17:31.349Z,12.27
2023-02-12T09:22:33.983Z,11.63
2023-02-12T09:27:37.885Z,12.00
2023-02-12T09:32:40.376Z,12.65
2023-02-12T09:37:44.799Z,11.20
2023-02-12T09:43:06.145Z,9.65
2023-02-12T09:48:17.856Z,9.13
2023-02-12T09:53:22.395Z,8.43
2023-02-12T09:58:30.493Z,7.78
2023-02-12T10:03:34.348Z,4.70
2023-02-12T10:08:42.645Z,3.50
2023-02-12T10:13:51.933Z,3.22
2023-02-12T10:19:02.010Z,3.85
2023-02-12T10:24:16.575Z,3.10
2023-02-12T10:29:21.236Z,3.33
2023-02-12T10:34:26.749Z,2.83
2023-02-12T10:39:31.524Z,2.53
2023-02-12T10:44:34.063Z,2.65
2023-02-12T10:49:37.892Z,3.15
2023-02-12T10:54:42.167Z,3.50
2023-02-12T10:59:45.446Z,3.55
2023-02-12T11:04:49.598Z,2.17
2023-02-12T11:09:52.887Z,1.95
2023-02-12T11:14:56.891Z,1.30
2023-02-12T11:20:09.688Z,1.00
2023-02-12T11:25:16.695Z,1.45
2023-02-12T11:30:20.301Z,1.30
2023-02-12T11:35:25.903Z,1.30
2023-02-12T11:40:29.512Z,1.25
2023-02-12T11:45:33.499Z,1.90
2023-02-12T11:50:38.389Z,1.80
2023-02-12T11:55:41.890Z,1.67
2023-02-12T12:00:47.200Z,1.23
2023-02-12T12:05:52.353Z,1.55
2023-02-12T12:10:57.670Z,2.10
2023-02-12T12:16:23.013Z,2.17
2023-02-12T12:21:30.384Z,2.08
2023-02-12T12:26:35.000Z,2.38
2023-02-12T12:31:39.907Z,2.15
2023-02-12T12:37:06.821Z,2.70
2023-02-12T12:42:20.599Z,2.90
2023-02-12T12:47:26.029Z,2.92
2023-02-12T12:52:38.890Z,3.38
2023-02-12T12:57:47.539Z,3.00
2023-02-12T13:03:06.294Z,4.43
2023-02-12T13:08:14.288Z,3.53
2023-02-12T13:13:21.791Z,3.25
2023-02-12T13:18:32.018Z,3.58
2023-02-12T13:23:39.977Z,2.97
2023-02-12T13:28:44.813Z,3.10
2023-02-12T13:33:50.165Z,3.10
2023-02-12T13:38:57.392Z,3.25
2023-02-12T13:44:04.821Z,6.10
2023-02-12T13:49:14.018Z,3.90
2023-02-12T13:54:31.068Z,3.60
2023-02-12T13:59:43.953Z,4.07
2023-02-12T14:04:47.483Z,4.73
2023-02-12T14:14:55.813Z,4.38
2023-02-12T14:20:06.278Z,3.75
2023-02-12T14:25:23.736Z,3.70
2023-02-12T14:30:32.146Z,5.53
2023-02-12T14:35:35.893Z,4.90
2023-02-12T14:40:42.547Z,3.45
2023-02-12T14:45:46.541Z,3.70
2023-02-12T14:50:52.173Z,4.57
2023-02-12T14:55:55.433Z,4.10
2023-02-12T15:01:01.605Z,5.30
2023-02-12T15:06:08.208Z,4.05
2023-02-12T15:11:15.467Z,3.53
2023-02-12T15:16:23.822Z,3.38
2023-02-12T15:21:27.855Z,3.55
2023-02-12T15:26:31.780Z,3.80
2023-02-12T15:31:36.169Z,5.80
2023-02-12T15:36:38.828Z,5.20
2023-02-12T15:41:42.040Z,5.47
2023-02-12T15:46:55.077Z,6.55
2023-02-12T15:51:58.661Z,5.78
2023-02-12T15:57:01.754Z,6.45
2023-02-12T16:02:05.668Z,7.18
2023-02-12T16:07:08.912Z,5.60
2023-02-12T16:12:14.033Z,7.63
2023-02-12T16:17:28.163Z,4.13
2023-02-12T16:22:33.156Z,6.72
2023-02-12T16:27:35.995Z,6.60
2023-02-12T16:32:41.134Z,7.63
2023-02-12T16:37:50.817Z,8.63
2023-02-12T16:43:07.702Z,8.38
2023-02-12T16:48:17.071Z,6.43
2023-02-12T16:53:33.853Z,6.43
2023-02-12T16:58:36.439Z,7.70
2023-02-12T17:03:43.602Z,6.97
2023-02-12T17:08:46.278Z,8.70
2023-02-12T17:13:49.558Z,6.63
2023-02-12T17:18:53.365Z,8.53
2023-02-12T17:23:56.026Z,8.43
2023-02-12T17:29:05.116Z,6.53
2023-02-12T17:34:09.093Z,7.38
2023-02-12T17:39:13.068Z,6.88
2023-02-12T17:44:16.298Z,8.20
2023-02-12T17:49:20.113Z,7.78
2023-02-12T17:54:22.682Z,8.23
2023-02-12T17:59:25.163Z,7.70
2023-02-12T18:04:28.983Z,8.15
2023-02-12T18:09:32.155Z,8.65
2023-02-12T18:14:34.803Z,8.15
2023-02-12T18:19:38.751Z,6.57
2023-02-12T18:24:41.571Z,7.78
2023-02-12T18:29:43.995Z,7.13
2023-02-12T18:34:47.792Z,7.47
2023-02-12T18:39:50.258Z,7.13
2023-02-12T18:44:52.830Z,8.38
2023-02-12T18:49:58.001Z,11.83
2023-02-12T18:55:00.464Z,9.50
2023-02-12T19:00:04.563Z,8.10
2023-02-12T19:05:10.604Z,9.32
2023-02-12T19:10:14.009Z,9.03
2023-02-12T19:15:16.815Z,7.77
2023-02-12T19:20:21.029Z,8.30
2023-02-12T19:30:25.757Z,8.10
2023-02-12T19:35:29.823Z,9.23
2023-02-12T19:40:32.539Z,6.57
2023-02-12T19:45:35.106Z,5.80
2023-02-12T19:50:38.960Z,7.57
2023-02-12T19:55:41.587Z,6.28
2023-02-12T20:00:44.177Z,7.30
2023-02-12T20:05:52.071Z,8.93
2023-02-12T20:10:54.961Z,8.57
2023-02-12T20:15:57.682Z,7.33
2023-02-12T20:21:02.126Z,7.03
2023-02-12T20:26:05.237Z,5.80
2023-02-12T20:31:11.195Z,6.15
2023-02-12T20:36:15.612Z,6.87
2023-02-12T20:46:21.812Z,6.33
2023-02-12T20:51:26.749Z,6.50
2023-02-12T20:56:30.801Z,7.03
2023-02-12T21:01:34.995Z,4.70
2023-02-12T21:06:40.373Z,5.07
2023-02-12T21:11:45.930Z,6.17
2023-02-12T21:16:49.862Z,6.60
2023-02-12T21:21:54.234Z,6.40
2023-02-12T21:26:57.358Z,6.87
2023-02-12T21:32:01.118Z,5.35
2023-02-12T21:37:05.349Z,3.97
2023-02-12T21:42:07.826Z,5.55
2023-02-12T21:47:10.821Z,6.07
2023-02-12T21:52:14.850Z,5.63
2023-02-12T21:57:19.791Z,4.28
2023-02-12T22:02:22.577Z,6.63
2023-02-12T22:07:26.656Z,7.13
2023-02-12T22:12:32.306Z,6.40
2023-02-12T22:17:34.978Z,6.00
2023-02-12T22:22:38.903Z,4.50
2023-02-12T22:27:41.614Z,6.72
2023-02-12T22:32:44.216Z,5.30
2023-02-12T22:37:48.046Z,4.50
2023-02-12T22:42:50.526Z,4.55
2023-02-12T22:47:52.923Z,2.63
2023-02-12T22:52:56.895Z,4.90
2023-02-12T22:57:59.556Z,5.18
2023-02-12T23:03:02.360Z,4.47
2023-02-12T23:08:06.751Z,4.53
2023-02-12T23:13:10.467Z,3.30
2023-02-12T23:18:13.276Z,3.55
2023-02-12T23:23:17.319Z,5.73
2023-02-12T23:33:23.046Z,5.90
2023-02-12T23:38:26.871Z,4.43
2023-02-12T23:43:29.674Z,5.00
2023-02-12T23:48:32.649Z,4.70
2023-02-12T23:53:37.091Z,3.80
2023-02-12T23:58:39.609Z,3.37
